Time;durP1;ratioP1;P1;durP2;ratioP2;P2;SDS_P1;SDS_P2;PMS_P1;PMS_P2;Temp;Humidity;BMP_temperature;BMP_pressure;BME280_temperature;BME280_humidity;BME280_pressure;Samples;Min_cycle;Max_cycle;Signal;HPM_P1;HPM_P2
2024/04/10 00:02:10;;;;;;;3.97;1.23;;;;;;;6.33;100.00;100800.31;4741387;30;20039;-80
2024/04/10 00:04:37;;;;;;;5.32;0.85;;;;;;;6.38;100.00;100812.28;4753116;30;20043;-80
2024/04/10 00:07:03;;;;;;;9.38;1.00;;;;;;;6.40;100.00;100808.59;4771388;29;20039;-80
2024/04/10 00:09:29;;;;;;;5.82;1.27;;;;;;;6.41;100.00;100814.69;4742490;30;20149;-83
2024/04/10 00:11:55;;;;;;;2.20;0.93;;;;;;;6.41;100.00;100810.28;4767944;29;20035;-83
2024/04/10 00:14:21;;;;;;;11.85;3.00;;;;;;;6.40;100.00;100813.03;4769493;29;20046;-83
2024/04/10 00:16:48;;;;;;;8.27;1.60;;;;;;;6.45;100.00;100803.00;4758626;30;20032;-83
2024/04/10 00:19:15;;;;;;;5.28;1.27;;;;;;;6.45;100.00;100788.09;4763173;29;20062;-83
2024/04/10 00:21:43;;;;;;;3.08;0.80;;;;;;;6.52;100.00;100785.03;4771389;30;20042;-80
2024/04/10 00:24:11;;;;;;;8.00;1.20;;;;;;;6.54;100.00;100777.91;4750714;29;20050;-80
2024/04/10 00:26:37;;;;;;;7.95;1.05;;;;;;;6.56;100.00;100781.25;4769712;29;20116;-83
2024/04/10 00:29:03;;;;;;;7.03;0.90;;;;;;;6.57;100.00;100775.91;4754698;29;20039;-85
2024/04/10 00:31:29;;;;;;;4.25;0.77;;;;;;;6.57;100.00;100772.41;4758649;30;20062;-80
2024/04/10 00:33:55;;;;;;;6.22;1.25;;;;;;;6.56;100.00;100768.94;4752717;30;20051;-80
2024/04/10 00:36:20;;;;;;;4.07;0.90;;;;;;;6.60;100.00;100761.69;4762150;30;20036;-85
2024/04/10 00:38:46;;;;;;;6.28;1.15;;;;;;;6.62;100.00;100748.44;4746976;30;20035;-84
2024/04/10 00:41:12;;;;;;;5.57;0.98;;;;;;;6.64;100.00;100750.00;4768806;30;20458;-81
2024/04/10 00:43:39;;;;;;;6.47;0.90;;;;;;;6.64;100.00;100744.75;4766764;29;20047;-80
2024/04/10 00:46:14;;;;;;;4.45;0.90;;;;;;;6.62;100.00;100740.56;4763010;30;20509;-80
2024/04/10 00:48:41;;;;;;;5.07;1.20;;;;;;;6.60;100.00;100734.59;4756887;30;20123;-80
2024/04/10 00:51:10;;;;;;;4.47;1.05;;;;;;;6.58;100.00;100730.28;4744038;30;20043;-85
2024/04/10 00:53:37;;;;;;;5.32;0.93;;;;;;;6.61;100.00;100739.72;4778642;29;20054;-84
2024/04/10 00:56:03;;;;;;;4.10;0.80;;;;;;;6.59;100.00;100718.00;4753792;29;20035;-84
2024/04/10 00:58:33;;;;;;;1.83;0.70;;;;;;;6.63;100.00;100727.31;4759689;30;20038;-84
2024/04/10 01:01:00;;;;;;;6.82;0.70;;;;;;;6.62;100.00;100723.03;4766932;29;20042;-80
2024/04/10 01:03:30;;;;;;;8.68;1.40;;;;;;;6.62;100.00;100714.31;4751078;30;20053;-80
2024/04/10 01:06:06;;;;;;;10.35;1.45;;;;;;;6.65;100.00;100729.84;4751818;29;20466;-81
2024/04/10 01:08:33;;;;;;;6.38;0.95;;;;;;;6.68;100.00;100733.09;4759708;29;20100;-79
2024/04/10 01:11:01;;;;;;;4.05;0.98;;;;;;;6.75;100.00;100732.66;4773122;29;20030;-81
2024/04/10 01:13:28;;;;;;;4.07;0.90;;;;;;;6.74;100.00;100725.69;4755164;29;20050;-79
2024/04/10 01:15:54;;;;;;;3.88;1.13;;;;;;;6.72;100.00;100715.28;4778812;29;20040;-80
2024/04/10 01:18:20;;;;;;;5.70;0.95;;;;;;;6.64;100.00;100710.59;4756824;29;20056;-80
2024/04/10 01:20:48;;;;;;;10.55;1.17;;;;;;;6.61;100.00;100718.72;4748792;30;20046;-83
2024/04/10 01:23:21;;;;;;;5.10;1.15;;;;;;;6.62;100.00;100709.91;4745135;29;20039;-82
2024/04/10 01:25:48;;;;;;;8.23;1.05;;;;;;;6.66;100.00;100713.97;4779247;29;20050;-84
2024/04/10 01:28:14;;;;;;;6.05;1.02;;;;;;;6.75;100.00;100709.00;4753413;29;20151;-83
2024/04/10 01:30:40;;;;;;;5.75;1.00;;;;;;;6.80;100.00;100714.75;4767279;29;20138;-79
2024/04/10 01:33:06;;;;;;;4.70;1.13;;;;;;;6.82;100.00;100707.59;4766647;29;20142;-79
2024/04/10 01:35:32;;;;;;;2.53;0.77;;;;;;;6.85;100.00;100696.03;4767887;30;20122;-81
2024/04/10 01:37:58;;;;;;;4.90;1.20;;;;;;;6.85;100.00;100698.66;4752293;29;20043;-79
2024/04/10 01:40:24;;;;;;;6.45;1.08;;;;;;;6.86;100.00;100701.16;4749598;29;20081;-82
2024/04/10 01:42:50;;;;;;;7.03;0.75;;;;;;;6.92;100.00;100699.88;4771554;29;20045;-84
2024/04/10 01:45:16;;;;;;;4.35;0.95;;;;;;;6.97;100.00;100692.47;4742290;29;20039;-84
2024/04/10 01:47:42;;;;;;;5.55;0.90;;;;;;;6.99;100.00;100693.19;4743304;30;20370;-84
2024/04/10 01:50:08;;;;;;;5.22;1.27;;;;;;;7.03;100.00;100685.91;4773310;29;20521;-85
2024/04/10 01:52:34;;;;;;;7.97;1.00;;;;;;;7.02;100.00;100673.75;4769474;29;20047;-84
2024/04/10 01:55:02;;;;;;;3.65;0.75;;;;;;;7.02;100.00;100671.13;4749020;29;20434;-81
2024/04/10 01:57:28;;;;;;;7.82;1.10;;;;;;;6.99;100.00;100673.97;4736998;29;20524;-81
2024/04/10 01:59:53;;;;;;;5.68;1.10;;;;;;;6.99;100.00;100663.47;4743689;29;20042;-84
2024/04/10 02:02:19;;;;;;;3.72;1.30;;;;;;;6.98;100.00;100659.97;4751341;29;20044;-84
2024/04/10 02:04:45;;;;;;;5.63;1.00;;;;;;;6.98;100.00;100656.50;4749649;29;20095;-81
2024/04/10 02:07:12;;;;;;;5.72;1.00;;;;;;;6.99;100.00;100668.72;4762044;29;20046;-81
2024/04/10 02:09:37;;;;;;;6.35;1.23;;;;;;;6.99;100.00;100659.03;4722224;29;20040;-81
2024/04/10 02:12:03;;;;;;;7.43;1.70;;;;;;;7.01;100.00;100646.59;4759402;29;20039;-81
2024/04/10 02:14:30;;;;;;;8.18;1.00;;;;;;;7.03;100.00;100647.34;4735408;29;21043;-85
2024/04/10 02:16:56;;;;;;;13.00;1.92;;;;;;;6.99;100.00;100652.94;4767875;29;20508;-85
2024/04/10 02:19:22;;;;;;;8.20;1.10;;;;;;;6.99;100.00;100645.06;4753138;29;20059;-82
2024/04/10 02:21:48;;;;;;;14.25;2.22;;;;;;;6.98;100.00;100643.38;4779797;29;20043;-82
2024/04/10 02:24:14;;;;;;;12.82;1.75;;;;;;;6.97;100.00;100650.44;4761072;29;20394;-81
2024/04/10 02:26:40;;;;;;;13.18;1.88;;;;;;;6.94;100.00;100637.53;4753402;29;20036;-83
2024/04/10 02:29:09;;;;;;;9.90;1.60;;;;;;;6.94;100.00;100630.47;4747051;29;20505;-82
2024/04/10 02:31:35;;;;;;;9.00;1.20;;;;;;;6.98;100.00;100623.19;4769079;30;20115;-83
2024/04/10 02:34:01;;;;;;;3.97;0.82;;;;;;;6.98;100.00;100620.56;4761493;29;20399;-82
2024/04/10 02:36:27;;;;;;;10.68;1.50;;;;;;;7.00;100.00;100620.44;4763607;30;20052;-82
2024/04/10 02:38:53;;;;;;;7.90;1.10;;;;;;;6.94;100.00;100619.13;4750214;29;20516;-83
2024/04/10 02:41:19;;;;;;;11.75;1.45;;;;;;;6.91;100.00;100612.28;4767216;30;20043;-82
2024/04/10 02:43:46;;;;;;;8.88;1.23;;;;;;;6.91;100.00;100614.94;4772866;29;20041;-82
2024/04/10 02:46:15;;;;;;;14.82;1.70;;;;;;;6.87;100.00;100615.28;4766958;30;20069;-83
2024/04/10 02:48:41;;;;;;;12.13;1.63;;;;;;;6.82;100.00;100605.97;4733484;29;20054;-84
2024/04/10 02:51:08;;;;;;;7.03;1.23;;;;;;;6.81;100.00;100600.81;4741908;30;20405;-83
2024/04/10 02:53:34;;;;;;;5.18;0.93;;;;;;;6.76;100.00;100590.66;4757372;29;20035;-83
2024/04/10 02:55:59;;;;;;;8.80;1.17;;;;;;;6.72;100.00;100589.19;4767494;30;20595;-82
2024/04/10 02:58:45;;;;;;;6.07;1.02;;;;;;;6.71;100.00;100590.16;4756020;29;20128;-83
2024/04/10 03:01:12;;;;;;;9.00;1.42;;;;;;;6.72;100.00;100570.81;4748698;29;20055;-82
2024/04/10 03:03:56;;;;;;;9.40;1.77;;;;;;;6.73;100.00;100559.38;4771880;29;20151;-84
2024/04/10 03:06:40;;;;;;;8.93;1.23;;;;;;;6.70;100.00;100541.22;4749185;29;20059;-84
2024/04/10 03:09:26;;;;;;;9.05;1.27;;;;;;;6.75;100.00;100540.88;4763469;29;20042;-83
2024/04/10 03:11:51;;;;;;;10.65;2.10;;;;;;;6.76;100.00;100535.50;4763886;29;20122;-82
2024/04/10 03:14:37;;;;;;;8.45;1.73;;;;;;;6.77;100.00;100539.78;4758374;29;20049;-82
2024/04/10 03:17:03;;;;;;;16.77;1.45;;;;;;;6.79;100.00;100530.00;4750456;29;20051;-80
2024/04/10 03:19:29;;;;;;;9.70;1.90;;;;;;;6.87;100.00;100531.19;4765927;29;20048;-83
2024/04/10 03:21:55;;;;;;;11.07;1.98;;;;;;;6.88;100.00;100528.44;4763385;30;20063;-83
2024/04/10 03:24:20;;;;;;;11.45;1.52;;;;;;;6.92;100.00;100531.69;4771262;29;20374;-83
2024/04/10 03:26:46;;;;;;;9.48;1.60;;;;;;;6.98;100.00;100535.63;4771103;29;20129;-82
2024/04/10 03:29:31;;;;;;;13.10;1.67;;;;;;;6.99;100.00;100527.63;4767638;29;20617;-83
2024/04/10 03:32:15;;;;;;;13.38;1.55;;;;;;;7.07;100.00;100530.50;4756323;30;20140;-83
2024/04/10 03:34:41;;;;;;;10.18;1.50;;;;;;;7.11;100.00;100510.06;4736119;30;20058;-82
2024/04/10 03:37:07;;;;;;;19.02;1.80;;;;;;;7.16;100.00;100502.66;4764342;30;20052;-83
2024/04/10 03:39:51;;;;;;;11.23;1.65;;;;;;;7.24;100.00;100503.84;4772921;29;20093;-84
2024/04/10 03:42:18;;;;;;;16.75;1.52;;;;;;;7.25;100.00;100505.50;4746257;30;20043;-90
2024/04/10 03:44:44;;;;;;;13.77;1.40;;;;;;;7.32;100.00;100502.31;4762856;30;20043;-85
2024/04/10 03:47:10;;;;;;;13.98;2.17;;;;;;;7.31;100.00;100478.75;4766285;30;20047;-86
2024/04/10 03:49:54;;;;;;;11.82;2.05;;;;;;;7.35;100.00;100468.81;4774927;29;20126;-83
2024/04/10 03:52:38;;;;;;;13.82;1.77;;;;;;;7.41;100.00;100463.06;4779099;29;20105;-81
2024/04/10 03:55:06;;;;;;;10.63;1.92;;;;;;;7.47;100.00;100453.84;4756310;30;20031;-80
2024/04/10 03:57:31;;;;;;;11.40;1.40;;;;;;;7.51;100.00;100448.22;4753087;29;20047;-83
2024/04/10 03:59:57;;;;;;;16.63;1.67;;;;;;;7.53;100.00;100443.66;4767995;30;20043;-81
2024/04/10 04:02:44;;;;;;;10.60;1.88;;;;;;;7.59;100.00;100455.50;4755863;29;20172;-84
2024/04/10 04:05:10;;;;;;;11.60;1.38;;;;;;;7.63;100.00;100449.00;4756083;30;20097;-83
2024/04/10 04:07:55;;;;;;;15.55;1.55;;;;;;;7.67;100.00;100460.13;4765341;29;20046;-82
2024/04/10 04:10:21;;;;;;;7.82;1.25;;;;;;;7.70;100.00;100446.72;4770091;30;20158;-87
2024/04/10 04:12:46;;;;;;;11.52;1.30;;;;;;;7.73;100.00;100449.09;4755476;29;20047;-85
2024/04/10 04:15:12;;;;;;;7.70;1.23;;;;;;;7.77;100.00;100439.16;4760837;29;20070;-80
2024/04/10 04:17:56;;;;;;;14.68;1.73;;;;;;;7.79;100.00;100430.16;4764858;29;20057;-81
2024/04/10 04:20:41;;;;;;;22.45;2.88;;;;;;;7.82;100.00;100429.06;4771106;30;20630;-84
2024/04/10 04:23:26;;;;;;;10.82;1.45;;;;;;;7.86;100.00;100419.97;4767887;29;20110;-85
2024/04/10 04:25:52;;;;;;;17.13;2.08;;;;;;;7.90;100.00;100423.22;4750462;30;20043;-81
2024/04/10 04:28:36;;;;;;;14.80;1.95;;;;;;;7.89;100.00;100424.16;4776730;30;20544;-81
2024/04/10 04:31:21;;;;;;;14.60;1.65;;;;;;;7.90;100.00;100410.84;4760108;29;20059;-83
2024/04/10 04:33:48;;;;;;;9.70;1.35;;;;;;;7.92;100.00;100393.16;4754865;29;20458;-80
2024/04/10 04:36:14;;;;;;;8.10;1.05;;;;;;;7.97;100.00;100386.66;4771363;29;20095;-84
2024/04/10 04:38:41;;;;;;;8.25;1.50;;;;;;;8.00;100.00;100371.44;4769063;30;20458;-80
2024/04/10 04:41:06;;;;;;;6.00;1.65;;;;;;;7.98;100.00;100368.09;4751301;29;20055;-81
2024/04/10 04:43:32;;;;;;;9.35;1.02;;;;;;;7.99;100.00;100356.63;4763117;29;20401;-82
2024/04/10 04:46:00;;;;;;;9.93;1.00;;;;;;;8.00;100.00;100353.03;4742305;29;20041;-84
2024/04/10 04:48:45;;;;;;;8.68;0.73;;;;;;;8.00;100.00;100353.03;4767345;30;20117;-82
2024/04/10 04:51:11;;;;;;;6.90;0.70;;;;;;;8.07;100.00;100348.91;4752589;30;20601;-82
2024/04/10 04:53:38;;;;;;;5.47;0.77;;;;;;;8.11;100.00;100340.75;4762452;29;20114;-81
2024/04/10 04:56:22;;;;;;;5.07;0.52;;;;;;;8.13;100.00;100328.28;4765414;29;20136;-80
2024/04/10 04:58:48;;;;;;;5.90;0.60;;;;;;;8.17;100.00;100316.53;4736454;30;20082;-82
2024/04/10 05:01:14;;;;;;;6.07;0.70;;;;;;;8.17;100.00;100322.63;4752330;29;20047;-84
2024/04/10 05:07:02;;;;;;;3.85;0.73;;;;;;;8.18;100.00;100319.03;4779340;29;20038;-84
2024/04/10 05:09:28;;;;;;;6.80;0.70;;;;;;;8.23;100.00;100304.63;4781247;29;20426;-79
2024/04/10 05:12:13;;;;;;;2.15;0.30;;;;;;;8.24;100.00;100301.88;4761636;29;20569;-84
2024/04/10 05:14:39;;;;;;;5.95;0.60;;;;;;;8.28;100.00;100278.75;4756063;29;20039;-83
2024/04/10 05:17:07;;;;;;;4.03;0.40;;;;;;;8.30;100.00;100268.91;4754171;29;20062;-82
2024/04/10 05:19:52;;;;;;;3.60;0.50;;;;;;;8.31;100.00;100267.94;4770671;29;20112;-81
2024/04/10 05:22:18;;;;;;;1.70;0.40;;;;;;;8.35;100.00;100261.44;4772838;29;20035;-82
2024/04/10 05:25:03;;;;;;;3.10;0.47;;;;;;;8.34;100.00;100251.03;4778957;29;20064;-85
2024/04/10 05:27:29;;;;;;;2.20;0.55;;;;;;;8.33;100.00;100268.63;4751491;30;20119;-79
2024/04/10 05:30:01;;;;;;;1.70;0.28;;;;;;;8.38;100.00;100265.59;4765938;30;21149;-88
2024/04/10 05:32:45;;;;;;;3.75;0.25;;;;;;;8.32;100.00;100280.97;4753025;30;20575;-82
2024/04/10 05:35:15;;;;;;;0.63;0.20;;;;;;;8.37;100.00;100263.94;4751687;30;20039;-84
2024/04/10 05:37:44;;;;;;;0.55;0.15;;;;;;;8.37;100.00;100275.31;4749648;29;20035;-81
2024/04/10 05:40:28;;;;;;;0.20;0.10;;;;;;;8.37;100.00;100267.41;4776702;29;20050;-85
2024/04/10 05:43:12;;;;;;;2.17;0.32;;;;;;;8.46;100.00;100272.84;4772874;29;20101;-82
2024/04/10 05:45:57;;;;;;;0.63;0.13;;;;;;;8.47;100.00;100271.88;4762343;30;20055;-81
2024/04/10 05:48:41;;;;;;;0.30;0.10;;;;;;;8.47;100.00;100285.03;4764804;29;20051;-85
2024/04/10 05:51:26;;;;;;;2.15;0.20;;;;;;;8.53;100.00;100284.50;4766132;30;20053;-82
2024/04/10 05:53:55;;;;;;;0.65;0.20;;;;;;;8.58;100.00;100277.06;4737010;29;20036;-84
2024/04/10 05:56:40;;;;;;;2.38;0.30;;;;;;;8.57;100.00;100272.75;4765019;29;20171;-83
2024/04/10 05:59:26;;;;;;;1.45;0.10;;;;;;;8.59;100.00;100278.72;4768239;29;20050;-80
2024/04/10 06:02:10;;;;;;;1.10;0.17;;;;;;;8.64;100.00;100273.03;4754987;29;20158;-79
2024/04/10 06:04:36;;;;;;;0.40;0.00;;;;;;;8.67;100.00;100254.31;4728017;30;20043;-81
2024/04/10 06:07:21;;;;;;;0.08;0.08;;;;;;;8.73;100.00;100263.50;4768145;29;20051;-82
2024/04/10 06:10:05;;;;;;;0.60;0.10;;;;;;;8.77;100.00;100254.34;4768565;30;20549;-83
2024/04/10 06:12:31;;;;;;;1.27;0.05;;;;;;;8.80;100.00;100254.06;4761152;30;20043;-83
2024/04/10 06:14:57;;;;;;;1.55;0.10;;;;;;;8.80;100.00;100252.28;4748757;30;20489;-81
2024/04/10 06:17:41;;;;;;;2.72;0.20;;;;;;;8.86;100.00;100265.84;4785220;29;20078;-82
2024/04/10 06:20:11;;;;;;;0.35;0.03;;;;;;;8.92;100.00;100252.13;4762880;29;20055;-82
2024/04/10 06:22:55;;;;;;;0.20;0.10;;;;;;;8.95;100.00;100251.84;4756630;29;20115;-89
2024/04/10 06:25:21;;;;;;;0.10;0.00;;;;;;;8.95;100.00;100251.84;4763997;30;20477;-83
2024/04/10 06:28:05;;;;;;;1.40;0.00;;;;;;;8.98;100.00;100242.84;4767945;30;20126;-81
2024/04/10 06:30:57;;;;;;;0.20;0.00;;;;;;;9.04;100.00;100224.66;4760126;30;20072;-82
2024/04/10 06:33:41;;;;;;;0.52;0.08;;;;;;;9.02;100.00;100244.22;4766132;29;20501;-84
2024/04/10 06:36:08;;;;;;;0.70;0.10;;;;;;;9.03;100.00;100238.81;4759082;30;20035;-86
2024/04/10 06:38:34;;;;;;;0.10;0.00;;;;;;;9.09;100.00;100231.31;4737234;30;20032;-86
2024/04/10 06:41:03;;;;;;;0.40;0.00;;;;;;;9.12;100.00;100233.66;4758479;30;20897;-83
2024/04/10 06:43:48;;;;;;;0.60;0.20;;;;;;;9.13;100.00;100224.78;4766675;29;20487;-89
2024/04/10 06:46:32;;;;;;;0.28;0.05;;;;;;;9.14;100.00;100218.56;4765189;29;20085;-82
2024/04/10 06:48:58;;;;;;;0.63;0.00;;;;;;;9.15;100.00;100199.13;4752727;30;20043;-83
2024/04/10 06:51:43;;;;;;;0.88;0.03;;;;;;;9.18;100.00;100194.41;4759079;29;20400;-83
2024/04/10 06:54:10;;;;;;;2.08;0.10;;;;;;;9.20;100.00;100198.69;4777535;29;20047;-80
2024/04/10 06:56:36;;;;;;;1.77;0.13;;;;;;;9.23;100.00;100208.94;4760697;29;20039;-83
2024/04/10 06:59:20;;;;;;;0.20;0.10;;;;;;;9.26;100.00;100230.59;4755913;29;20076;-83
2024/04/10 07:01:46;;;;;;;1.50;0.08;;;;;;;9.30;100.00;100241.72;4765393;29;20039;-83
2024/04/10 07:04:31;;;;;;;0.52;0.10;;;;;;;9.35;100.00;100244.75;4777003;29;20502;-83
2024/04/10 07:07:02;;;;;;;0.63;0.10;;;;;;;9.43;100.00;100251.94;4764078;30;20031;-88
2024/04/10 07:09:49;;;;;;;0.22;0.05;;;;;;;9.41;100.00;100260.00;4771359;29;20149;-89
2024/04/10 07:12:34;;;;;;;0.35;0.10;;;;;;;9.45;100.00;100267.63;4752561;30;20045;-82
2024/04/10 07:15:21;;;;;;;0.75;0.10;;;;;;;9.50;100.00;100268.06;4769188;29;20645;-88
2024/04/10 07:17:58;;;;;;;0.20;0.10;;;;;;;9.51;100.00;100267.06;4780614;29;20066;-85
2024/04/10 07:20:43;;;;;;;1.25;0.20;;;;;;;9.55;100.00;100266.66;4748773;30;20479;-83
2024/04/10 07:23:28;;;;;;;1.38;0.10;;;;;;;9.51;100.00;100244.16;4747105;30;20423;-84
2024/04/10 07:26:20;;;;;;;1.20;0.10;;;;;;;9.58;100.00;100236.50;4769766;30;20051;-88
2024/04/10 07:29:04;;;;;;;0.30;0.10;;;;;;;9.55;100.00;100232.38;4742636;30;20406;-85
2024/04/10 07:31:35;;;;;;;0.60;0.10;;;;;;;9.61;100.00;100236.22;4764620;30;20111;-82
2024/04/10 07:34:03;;;;;;;1.95;0.10;;;;;;;9.65;100.00;100240.22;4719414;30;20094;-87
2024/04/10 07:36:48;;;;;;;0.63;0.10;;;;;;;9.68;100.00;100247.06;4746774;30;20058;-86
2024/04/10 07:39:32;;;;;;;0.00;0.00;;;;;;;9.67;100.00;100237.44;4738055;30;20047;-85
2024/04/10 07:42:17;;;;;;;0.20;0.10;;;;;;;9.72;100.00;100237.84;4753844;30;20319;-86
2024/04/10 07:44:43;;;;;;;0.25;0.00;;;;;;;9.75;100.00;100240.22;4726019;30;20031;-83
2024/04/10 07:47:27;;;;;;;0.55;0.10;;;;;;;9.78;100.00;100247.84;4752364;30;20524;-82
2024/04/10 07:49:53;;;;;;;0.35;0.10;;;;;;;9.83;100.00;100252.69;4745680;30;20040;-83
2024/04/10 07:52:19;;;;;;;0.57;0.13;;;;;;;9.85;100.00;100245.47;4720774;30;20047;-84
2024/04/10 07:55:04;;;;;;;3.33;0.10;;;;;;;9.92;100.00;100243.09;4741350;30;20070;-86
2024/04/10 07:57:48;;;;;;;1.85;0.10;;;;;;;9.96;100.00;100256.81;4746177;30;20042;-86
2024/04/10 08:00:14;;;;;;;1.55;0.00;;;;;;;9.99;100.00;100260.00;4743910;30;20036;-86
2024/04/10 08:02:40;;;;;;;1.80;0.10;;;;;;;10.02;100.00;100261.50;4752399;30;20195;-86
2024/04/10 08:05:09;;;;;;;0.40;0.10;;;;;;;10.03;100.00;100260.53;4752041;30;20111;-84
2024/04/10 08:07:36;;;;;;;0.90;0.10;;;;;;;10.08;100.00;100244.25;4750608;30;20047;-83
2024/04/10 08:10:03;;;;;;;0.63;0.10;;;;;;;10.06;100.00;100233.84;4752591;30;20028;-81
2024/04/10 08:12:30;;;;;;;0.30;0.10;;;;;;;10.15;100.00;100218.91;4729331;30;20043;-84
2024/04/10 08:15:14;;;;;;;0.10;0.03;;;;;;;10.18;100.00;100215.97;4742178;30;20097;-81
2024/04/10 08:17:59;;;;;;;0.00;0.00;;;;;;;10.22;100.00;100196.25;4754281;30;20100;-82
2024/04/10 08:20:25;;;;;;;0.20;0.00;;;;;;;10.31;100.00;100199.78;4741463;30;20670;-83
2024/04/10 08:22:52;;;;;;;0.20;0.00;;;;;;;10.34;100.00;100188.91;4768767;30;20040;-81
2024/04/10 08:25:38;;;;;;;0.00;0.00;;;;;;;10.40;100.00;100188.31;4769971;30;20565;-81
2024/04/10 08:28:04;;;;;;;0.30;0.10;;;;;;;10.46;100.00;100183.44;4739187;30;20043;-79
2024/04/10 08:30:30;;;;;;;0.65;0.17;;;;;;;10.52;100.00;100193.44;4755727;30;20039;-80
2024/04/10 08:33:15;;;;;;;0.95;0.10;;;;;;;10.60;100.00;100208.53;4773720;29;20104;-82
2024/04/10 08:35:42;;;;;;;0.00;0.00;;;;;;;10.63;100.00;100209.06;4759710;29;20516;-83
2024/04/10 08:38:08;;;;;;;0.00;0.00;;;;;;;10.69;100.00;100199.69;4754852;30;20051;-80
2024/04/10 08:40:54;;;;;;;0.20;0.10;;;;;;;10.72;100.00;100202.03;4754158;29;20116;-81
2024/04/10 08:43:21;;;;;;;1.88;0.10;;;;;;;10.75;100.00;100203.56;4758995;29;20046;-81
2024/04/10 08:46:08;;;;;;;0.10;0.00;;;;;;;10.81;100.00;100215.31;4772088;29;20088;-83
2024/04/10 08:48:34;;;;;;;0.30;0.10;;;;;;;10.82;100.00;100209.88;4754141;29;20073;-83
2024/04/10 08:51:22;;;;;;;0.30;0.10;;;;;;;10.88;100.00;100211.09;4744116;30;20119;-82
2024/04/10 08:54:07;;;;;;;0.15;0.00;;;;;;;10.89;100.00;100213.56;4776235;29;20551;-86
2024/04/10 08:56:33;;;;;;;0.95;0.00;;;;;;;10.92;100.00;100204.53;4736919;29;20043;-85
2024/04/10 08:58:59;;;;;;;0.22;0.08;;;;;;;10.96;100.00;100195.28;4745447;30;20409;-84
2024/04/10 09:01:46;;;;;;;;;;;;;;;10.98;100.00;100184.56;4759368;30;20065;-84
2024/04/10 09:04:13;;;;;;;0.30;0.28;;;;;;;11.01;100.00;100195.66;4766765;29;19952;-86
2024/04/10 09:06:39;;;;;;;0.47;0.10;;;;;;;11.13;100.00;100192.78;4763408;29;20032;-85
2024/04/10 09:09:24;;;;;;;0.38;0.00;;;;;;;11.17;100.00;100186.19;4753210;29;20110;-84
2024/04/10 09:12:08;;;;;;;1.38;0.00;;;;;;;11.22;100.00;100169.84;4771167;30;20064;-86
2024/04/10 09:15:11;;;;;;;0.52;0.35;;;;;;;11.33;100.00;100182.00;4776576;29;20103;-85
2024/04/10 09:17:37;;;;;;;0.20;0.10;;;;;;;11.33;100.00;100182.00;4747615;30;20706;-81
2024/04/10 09:20:24;;;;;;;0.50;0.30;;;;;;;11.40;100.00;100188.34;4764999;29;20058;-83
2024/04/10 09:23:09;;;;;;;2.45;0.60;;;;;;;11.48;100.00;100190.19;4759168;29;20057;-83
2024/04/10 09:25:54;;;;;;;1.13;0.30;;;;;;;11.53;100.00;100201.16;4760797;29;20082;-82
2024/04/10 09:28:20;;;;;;;2.35;0.30;;;;;;;11.59;100.00;100213.75;4759858;29;20035;-82
2024/04/10 09:31:04;;;;;;;1.10;0.30;;;;;;;11.62;100.00;100210.78;4771035;29;20105;-83
2024/04/10 09:33:52;;;;;;;0.22;0.22;;;;;;;11.72;100.00;100213.31;4752662;29;20130;-85
2024/04/10 09:36:22;;;;;;;0.40;0.30;;;;;;;11.74;100.00;100211.34;4740987;30;20032;-84
2024/04/10 09:39:10;;;;;;;3.20;0.35;;;;;;;11.81;100.00;100214.19;4759752;29;20090;-88
2024/04/10 09:41:58;;;;;;;0.70;0.15;;;;;;;11.89;100.00;100216.88;4772638;29;20408;-82
2024/04/10 09:44:49;;;;;;;0.82;0.20;;;;;;;11.94;100.00;100220.88;4767261;29;20412;-84
2024/04/10 09:47:17;;;;;;;0.43;0.20;;;;;;;12.04;100.00;100248.03;4741103;30;20046;-82
2024/04/10 09:49:49;;;;;;;0.57;0.10;;;;;;;12.12;100.00;100250.78;4734273;30;20134;-84
2024/04/10 09:52:18;;;;;;;1.35;0.20;;;;;;;12.12;100.00;100237.53;4765223;29;20075;-84
2024/04/10 09:55:04;;;;;;;1.65;0.30;;;;;;;12.14;100.00;100221.47;4777766;29;20555;-86
2024/04/10 09:57:54;;;;;;;1.02;0.75;;;;;;;12.20;100.00;100222.66;4766496;29;20054;-86
2024/04/10 10:00:20;;;;;;;0.52;0.30;;;;;;;12.24;100.00;100248.69;4737914;30;20524;-82
2024/04/10 10:03:06;;;;;;;1.70;0.40;;;;;;;12.30;100.00;100243.72;4772056;29;20183;-85
2024/04/10 10:06:07;;;;;;;2.28;0.40;;;;;;;12.38;100.00;100249.88;4757272;29;20120;-84
2024/04/10 10:08:54;;;;;;;2.30;0.40;;;;;;;12.44;100.00;100247.59;4767928;29;20504;-86
2024/04/10 10:11:39;;;;;;;2.33;0.65;;;;;;;12.43;100.00;100237.94;4765897;29;20499;-84
2024/04/10 10:14:07;;;;;;;0.68;0.40;;;;;;;12.45;100.00;100242.13;4754090;29;20083;-80
2024/04/10 10:16:51;;;;;;;1.95;0.50;;;;;;;12.47;100.00;100241.97;4757066;29;20050;-85
2024/04/10 10:19:40;;;;;;;1.50;0.30;;;;;;;12.55;100.00;100230.53;4769555;30;20063;-92
2024/04/10 10:22:29;;;;;;;1.20;0.60;;;;;;;12.59;100.00;100237.16;4786540;29;20131;-91
2024/04/10 10:25:17;;;;;;;1.75;0.38;;;;;;;12.67;100.00;100263.69;4780650;29;20139;-92
2024/04/10 10:28:13;;;;;;;1.02;0.50;;;;;;;12.68;100.00;100259.25;4764402;29;20364;-82
2024/04/10 10:31:11;;;;;;;0.45;0.30;;;;;;;12.82;100.00;100261.22;4768445;29;20151;-84
2024/04/10 10:33:44;;;;;;;2.45;0.40;;;;;;;12.85;100.00;100262.75;4766949;29;20130;-87
2024/04/10 10:36:48;;;;;;;0.85;0.40;;;;;;;12.81;100.00;100254.28;4772073;29;20038;-89
2024/04/10 10:39:43;;;;;;;0.95;0.40;;;;;;;12.94;100.00;100268.88;4755852;29;20058;-85
2024/04/10 10:42:12;;;;;;;1.70;0.50;;;;;;;12.90;100.00;100260.41;4768419;30;20043;-83
2024/04/10 10:45:06;;;;;;;0.70;0.45;;;;;;;12.88;100.00;100242.00;4771892;29;20472;-88
2024/04/10 10:47:54;;;;;;;1.55;0.40;;;;;;;12.87;100.00;100250.13;4785076;29;20058;-87
2024/04/10 10:50:40;;;;;;;1.05;0.40;;;;;;;12.98;100.00;100236.53;4755143;30;20066;-87
2024/04/10 10:53:31;;;;;;;0.60;0.40;;;;;;;12.97;100.00;100218.13;4745061;30;20094;-85
2024/04/10 10:56:31;;;;;;;0.60;0.45;;;;;;;13.07;100.00;100216.16;4757895;29;20055;-86
2024/04/10 10:59:45;;;;;;;1.30;0.40;;;;;;;13.17;100.00;100220.47;4716926;30;20468;-85
2024/04/10 11:02:50;;;;;;;2.25;0.40;;;;;;;13.31;100.00;100217.13;4720306;30;20157;-83
2024/04/10 11:09:29;;;;;;;0.60;0.45;;;;;;;13.60;100.00;100228.25;4729303;30;20132;-86
2024/04/10 11:12:07;;;;;;;1.60;0.50;;;;;;;13.65;100.00;100249.78;4734486;30;20051;-81
2024/04/10 11:14:51;;;;;;;0.30;0.30;;;;;;;13.59;100.00;100253.13;4734240;30;20059;-90
2024/04/10 11:17:19;;;;;;;0.47;0.40;;;;;;;13.56;100.00;100251.63;4698766;30;20045;-85
2024/04/10 11:20:11;;;;;;;2.05;0.40;;;;;;;13.58;100.00;100264.75;4694047;30;20141;-86
2024/04/10 11:22:41;;;;;;;0.40;0.30;;;;;;;13.61;100.00;100269.72;4684196;30;20136;-87
2024/04/10 11:25:34;;;;;;;0.73;0.40;;;;;;;13.64;100.00;100264.91;4698118;30;20080;-81
2024/04/10 11:28:35;;;;;;;0.40;0.38;;;;;;;13.70;100.00;100258.06;4648120;30;20064;-81
2024/04/10 11:31:27;;;;;;;1.35;0.40;;;;;;;13.77;100.00;100251.09;4633256;30;20496;-82
2024/04/10 11:33:56;;;;;;;1.50;0.47;;;;;;;13.77;100.00;100242.28;4644172;30;20057;-84
2024/04/10 11:36:21;;;;;;;5.65;4.25;;;;;;;13.84;100.00;100242.44;4644579;30;20846;-85
2024/04/10 11:38:51;;;;;;;2.70;2.47;;;;;;;13.84;100.00;100232.63;4658982;30;20077;-82
2024/04/10 11:41:43;;;;;;;7.97;6.85;;;;;;;13.81;100.00;100226.84;4647715;30;20049;-83
2024/04/10 11:44:25;;;;;;;10.50;9.27;;;;;;;13.88;100.00;100233.97;4654830;30;20067;-86
2024/04/10 11:47:13;;;;;;;15.80;13.90;;;;;;;13.89;100.00;100250.72;4675408;30;20065;-82
2024/04/10 11:49:57;;;;;;;10.68;7.97;;;;;;;13.91;100.00;100247.88;4663995;30;20116;-80
2024/04/10 11:52:23;;;;;;;24.85;17.30;;;;;;;13.92;100.00;100245.06;4660164;30;20151;-79
2024/04/10 11:55:09;;;;;;;50.97;35.88;;;;;;;13.98;100.00;100239.06;4650878;30;20105;-80
2024/04/10 11:57:53;;;;;;;78.68;54.45;;;;;;;13.96;100.00;100241.06;4663596;30;20110;-82
2024/04/10 12:00:37;;;;;;;4.72;4.22;;;;;;;13.99;100.00;100239.91;4672602;30;20892;-81
2024/04/10 12:03:22;;;;;;;3.20;2.70;;;;;;;13.99;100.00;100245.22;4700800;30;20427;-83
2024/04/10 12:05:49;;;;;;;6.13;5.53;;;;;;;14.04;100.00;100258.81;4718727;30;20036;-79